Time;durP1;ratioP1;P1;durP2;ratioP2;P2;SDS_P1;SDS_P2;PMS_P1;PMS_P2;Temp;Humidity;BMP_temperature;BMP_pressure;BME280_temperature;BME280_humidity;BME280_pressure;Samples;Min_cycle;Max_cycle;Signal;HPM_P1;HPM_P2
2023/03/08 00:00:48;;;;;;;;;;;;;;;0.41;86.42;92648.44;5051271;28;19925;-38
2023/03/08 00:03:14;;;;;;;;;;;;;;;0.41;85.51;92631.44;5051390;28;20061;-38
2023/03/08 00:05:39;;;;;;;;;;;;;;;0.26;85.48;92645.31;5051368;28;19969;-38
2023/03/08 00:08:04;;;;;;;;;;;;;;;0.15;85.81;92636.53;5051350;28;19987;-38
2023/03/08 00:10:29;;;;;;;;;;;;;;;0.12;86.37;92638.25;5051533;28;20074;-38
2023/03/08 00:12:55;;;;;;;;;;;;;;;0.12;86.19;92637.50;5051577;28;19917;-38
2023/03/08 00:15:20;;;;;;;;;;;;;;;0.13;86.04;92633.56;5051288;28;20423;-37
2023/03/08 00:17:45;;;;;;;;;;;;;;;0.17;85.38;92636.75;5051636;28;19921;-38
2023/03/08 00:20:11;;;;;;;;;;;;;;;0.10;85.11;92646.16;5034278;28;19917;-38
2023/03/08 00:22:36;;;;;;;;;;;;;;;-0.17;85.73;92628.03;5046640;28;19917;-38
2023/03/08 00:25:02;;;;;;;;;;;;;;;-0.25;86.16;92635.97;5031336;28;19920;-38
2023/03/08 00:27:27;;;;;;;;;;;;;;;-0.33;86.82;92639.69;5030978;28;19913;-38
2023/03/08 00:29:52;;;;;;;;;;;;;;;-0.35;87.50;92642.16;5031264;28;19913;-38
2023/03/08 00:32:17;;;;;;;;;;;;;;;-0.41;87.54;92642.16;5031169;28;19917;-38
2023/03/08 00:34:45;;;;;;;;;;;;;;;-0.26;86.84;92641.88;5049100;28;20313;-38
2023/03/08 00:37:11;;;;;;;;;;;;;;;-0.32;87.46;92644.59;5051029;28;19974;-37
2023/03/08 00:39:36;;;;;;;;;;;;;;;-0.15;87.59;92641.81;5050957;28;20355;-38
2023/03/08 00:42:01;;;;;;;;;;;;;;;-0.23;87.13;92640.88;5050954;28;19913;-38
2023/03/08 00:44:27;;;;;;;;;;;;;;;-0.02;86.18;92640.03;5041483;28;19924;-38
2023/03/08 00:46:52;;;;;;;;;;;;;;;0.02;86.63;92630.91;5030473;28;20406;-38
2023/03/08 00:49:17;;;;;;;;;;;;;;;-0.04;85.91;92634.38;5030755;28;19920;-38
2023/03/08 00:51:42;;;;;;;;;;;;;;;-0.32;87.59;92631.03;5030844;28;19921;-38
2023/03/08 00:54:08;;;;;;;;;;;;;;;-0.47;88.53;92622.47;5030628;28;20317;-38
2023/03/08 00:56:33;;;;;;;;;;;;;;;-0.63;89.45;92623.28;5040029;28;19913;-38
2023/03/08 00:58:58;;;;;;;;;;;;;;;-0.49;88.58;92633.06;5050293;28;19921;-38
2023/03/08 01:01:23;;;;;;;;;;;;;;;-0.35;88.10;92634.78;5050583;28;19963;-38
2023/03/08 01:03:49;;;;;;;;;;;;;;;-0.13;86.22;92621.09;5050578;28;19924;-38
2023/03/08 01:06:14;;;;;;;;;;;;;;;-0.26;86.06;92617.47;5050440;28;19916;-38
2023/03/08 01:08:41;;;;;;;;;;;;;;;-0.21;86.59;92627.56;5050399;28;20354;-38
2023/03/08 01:11:14;;;;;;;;;;;;;;;-0.04;86.18;92618.09;5050296;28;19923;-38
2023/03/08 01:13:39;;;;;;;;;;;;;;;-0.06;85.28;92617.13;5050122;28;19923;-38
2023/03/08 01:16:05;;;;;;;;;;;;;;;-0.35;86.42;92621.22;5049945;28;20000;-38
2023/03/08 01:18:30;;;;;;;;;;;;;;;-0.69;87.80;92624.50;5046826;28;19967;-37
2023/03/08 01:20:56;;;;;;;;;;;;;;;-0.80;87.93;92630.66;5029869;28;19971;-38
2023/03/08 01:23:22;;;;;;;;;;;;;;;-0.81;88.52;92631.91;5030006;28;19913;-38
2023/03/08 01:25:47;;;;;;;;;;;;;;;-0.84;89.19;92635.59;5029887;28;19971;-37
2023/03/08 01:28:12;;;;;;;;;;;;;;;-0.81;89.45;92629.22;5030085;28;19920;-38
2023/03/08 01:30:37;;;;;;;;;;;;;;;-0.82;89.99;92628.47;5029854;28;20393;-38
2023/03/08 01:33:03;;;;;;;;;;;;;;;-1.02;90.88;92628.00;5033913;28;19923;-38
2023/03/08 01:35:28;;;;;;;;;;;;;;;-0.93;91.56;92633.91;5050103;28;19913;-38
2023/03/08 01:37:53;;;;;;;;;;;;;;;-0.88;92.11;92632.41;5049937;28;19913;-37
2023/03/08 01:40:19;;;;;;;;;;;;;;;-0.82;91.43;92631.19;5042823;28;20360;-38
2023/03/08 01:42:44;;;;;;;;;;;;;;;-0.88;91.47;92635.13;5029712;28;19924;-37
2023/03/08 01:45:28;;;;;;;;;;;;;;;-0.91;90.50;92633.44;5030091;28;19924;-38
2023/03/08 01:47:53;;;;;;;;;;;;;;;-1.11;90.39;92628.25;5029629;28;19912;-38
2023/03/08 01:50:18;;;;;;;;;;;;;;;-1.09;90.73;92640.09;5029669;28;19919;-37
2023/03/08 01:52:45;;;;;;;;;;;;;;;-0.96;90.59;92634.16;5029581;28;19928;-37
2023/03/08 01:55:11;;;;;;;;;;;;;;;-0.95;90.47;92641.03;5029617;28;19937;-38
2023/03/08 01:57:38;;;;;;;;;;;;;;;-0.77;90.21;92644.00;5063333;28;19940;-38
2023/03/08 02:00:17;;;;;;;;;;;;;;;-0.96;89.10;92639.56;5064698;28;20589;-38
2023/03/08 02:02:43;;;;;;;;;;;;;;;-0.74;88.53;92650.41;5049538;28;19920;-38
2023/03/08 02:05:09;;;;;;;;;;;;;;;-0.91;88.18;92638.84;5065160;28;20027;-37
2023/03/08 02:07:34;;;;;;;;;;;;;;;-0.93;88.65;92641.28;5064988;28;20393;-38
2023/03/08 02:09:59;;;;;;;;;;;;;;;-1.00;89.53;92652.63;5049342;28;19999;-38
2023/03/08 02:12:25;;;;;;;;;;;;;;;-1.01;89.51;92648.44;5049051;28;20589;-37
2023/03/08 02:14:50;;;;;;;;;;;;;;;-1.20;89.30;92645.50;5049396;28;19924;-38
2023/03/08 02:17:15;;;;;;;;;;;;;;;-1.18;89.13;92645.75;5049114;28;19916;-38
2023/03/08 02:19:44;;;;;;;;;;;;;;;-1.23;89.39;92646.47;5036592;28;20428;-38
2023/03/08 02:22:10;;;;;;;;;;;;;;;-1.19;90.62;92646.97;5029102;28;19920;-38
2023/03/08 02:24:35;;;;;;;;;;;;;;;-1.16;89.58;92639.84;5044710;28;19913;-37
2023/03/08 02:27:03;;;;;;;;;;;;;;;-1.09;89.67;92640.09;5028928;28;20371;-38
2023/03/08 02:29:28;;;;;;;;;;;;;;;-0.92;88.87;92629.97;5044507;28;19913;-37
2023/03/08 02:31:53;;;;;;;;;;;;;;;-1.04;88.39;92633.19;5028626;28;19925;-38
2023/03/08 02:34:19;;;;;;;;;;;;;;;-0.78;87.71;92628.22;5044224;28;19913;-37
2023/03/08 02:36:44;;;;;;;;;;;;;;;-1.07;88.43;92631.47;5041407;28;20525;-38
2023/03/08 02:39:09;;;;;;;;;;;;;;;-1.33;89.46;92637.13;5029033;28;19921;-37
2023/03/08 02:41:34;;;;;;;;;;;;;;;-1.43;89.73;92640.56;5028943;28;20020;-37
2023/03/08 02:44:00;;;;;;;;;;;;;;;-1.45;89.58;92646.47;5029205;28;19928;-38
2023/03/08 02:46:25;;;;;;;;;;;;;;;-1.45;89.62;92640.34;5028840;28;19921;-38
2023/03/08 02:48:51;;;;;;;;;;;;;;;-1.34;89.81;92645.75;5029069;28;19943;-38
2023/03/08 02:51:16;;;;;;;;;;;;;;;-1.42;89.88;92644.75;5031469;28;19952;-38
2023/03/08 02:53:42;;;;;;;;;;;;;;;-1.20;89.97;92652.88;5032894;28;19983;-38
2023/03/08 02:56:07;;;;;;;;;;;;;;;-1.22;88.86;92650.69;5039053;28;19919;-38
2023/03/08 02:58:32;;;;;;;;;;;;;;;-1.09;87.92;92652.88;5052557;28;19916;-38
2023/03/08 03:00:57;;;;;;;;;;;;;;;-1.21;89.15;92664.97;5052532;28;20007;-38
2023/03/08 03:03:23;;;;;;;;;;;;;;;-1.26;88.79;92662.97;5052468;28;20324;-38
2023/03/08 03:05:48;;;;;;;;;;;;;;;-1.39;88.75;92660.75;5052580;28;19919;-38
2023/03/08 03:08:13;;;;;;;;;;;;;;;-1.67;89.80;92663.41;5052408;28;19967;-38
2023/03/08 03:10:39;;;;;;;;;;;;;;;-1.70;90.56;92663.66;5052417;28;19920;-38
2023/03/08 03:13:04;;;;;;;;;;;;;;;-1.72;90.75;92677.69;5052465;28;20030;-38
2023/03/08 03:15:30;;;;;;;;;;;;;;;-1.64;90.77;92675.97;5068073;28;20296;-38
2023/03/08 03:17:55;;;;;;;;;;;;;;;-1.62;90.98;92683.59;5052234;28;20390;-38
2023/03/08 03:20:20;;;;;;;;;;;;;;;-1.43;90.41;92676.53;5034068;28;19916;-38
2023/03/08 03:22:46;;;;;;;;;;;;;;;-1.38;89.18;92677.72;5032482;28;20008;-37
2023/03/08 03:25:11;;;;;;;;;;;;;;;-1.48;90.60;92677.25;5032623;28;20012;-38
2023/03/08 03:27:36;;;;;;;;;;;;;;;-1.61;90.36;92683.13;5032504;28;20293;-38
2023/03/08 03:30:02;;;;;;;;;;;;;;;-1.69;90.98;92676.69;5032232;28;19921;-38
2023/03/08 03:32:27;;;;;;;;;;;;;;;-1.56;92.01;92679.69;5031669;28;19954;-38
2023/03/08 03:34:52;;;;;;;;;;;;;;;-1.45;91.48;92684.38;5051608;28;19947;-38
2023/03/08 03:37:18;;;;;;;;;;;;;;;-1.62;91.50;92681.63;5052263;28;19931;-38
2023/03/08 03:39:43;;;;;;;;;;;;;;;-1.63;91.91;92680.19;5051901;28;20587;-38
2023/03/08 03:42:08;;;;;;;;;;;;;;;-1.58;90.78;92676.72;5051898;28;19929;-38
2023/03/08 03:44:34;;;;;;;;;;;;;;;-1.69;89.78;92682.09;5051980;28;20305;-38
2023/03/08 03:46:59;;;;;;;;;;;;;;;-1.63;89.97;92692.97;5051856;28;19935;-38
2023/03/08 03:49:24;;;;;;;;;;;;;;;-1.47;89.83;92686.09;5051676;28;19928;-38
2023/03/08 03:51:49;;;;;;;;;;;;;;;-1.51;90.49;92689.03;5051613;28;19953;-38
2023/03/08 03:54:15;;;;;;;;;;;;;;;-1.60;90.63;92703.53;5051769;28;19981;-38
2023/03/08 03:56:40;;;;;;;;;;;;;;;-1.71;90.98;92697.38;5041143;28;20265;-38
2023/03/08 03:59:05;;;;;;;;;;;;;;;-1.85;91.56;92707.16;5031650;28;20470;-38
2023/03/08 04:01:31;;;;;;;;;;;;;;;-2.02;91.38;92702.91;5030801;28;19980;-38
2023/03/08 04:03:56;;;;;;;;;;;;;;;-2.14;91.60;92704.84;5031262;28;19936;-38
2023/03/08 04:06:26;;;;;;;;;;;;;;;-2.08;91.04;92715.69;5031734;28;19967;-38
2023/03/08 04:08:52;;;;;;;;;;;;;;;-2.02;90.30;92711.03;5031470;28;19938;-38
2023/03/08 04:11:19;;;;;;;;;;;;;;;-2.00;90.90;92697.75;5031385;28;20465;-38
2023/03/08 04:13:44;;;;;;;;;;;;;;;-1.98;91.27;92706.88;5031584;28;20554;-38
2023/03/08 04:16:10;;;;;;;;;;;;;;;-1.79;90.48;92699.06;5031644;28;19963;-38
2023/03/08 04:18:36;;;;;;;;;;;;;;;-1.81;89.91;92706.91;5031343;28;19935;-38
2023/03/08 04:21:01;;;;;;;;;;;;;;;-1.65;88.95;92707.00;5031604;28;20567;-38
2023/03/08 04:23:26;;;;;;;;;;;;;;;-1.62;88.36;92713.38;5031523;28;20401;-38
2023/03/08 04:25:51;;;;;;;;;;;;;;;-1.68;88.44;92704.50;5031174;28;19958;-38
2023/03/08 04:28:17;;;;;;;;;;;;;;;-1.88;89.53;92710.09;5031408;28;19934;-38
2023/03/08 04:30:42;;;;;;;;;;;;;;;-2.00;89.42;92716.69;5030826;28;20005;-38
2023/03/08 04:33:08;;;;;;;;;;;;;;;-2.10;90.38;92718.84;5036347;28;19945;-38
2023/03/08 04:35:33;;;;;;;;;;;;;;;-1.96;90.41;92717.94;5051348;28;20442;-38
2023/03/08 04:37:58;;;;;;;;;;;;;;;-2.04;90.52;92719.66;5050820;28;20339;-38
2023/03/08 04:40:23;;;;;;;;;;;;;;;-2.02;90.63;92719.16;5051198;28;19980;-38
2023/03/08 04:42:49;;;;;;;;;;;;;;;-2.03;89.77;92715.69;5050780;28;19955;-38
2023/03/08 04:45:14;;;;;;;;;;;;;;;-2.00;90.55;92712.03;5051156;28;19929;-38
2023/03/08 04:47:39;;;;;;;;;;;;;;;-1.85;90.26;92718.00;5050467;28;20483;-38
2023/03/08 04:50:05;;;;;;;;;;;;;;;-1.70;89.51;92723.19;5050577;28;19929;-38
2023/03/08 04:52:30;;;;;;;;;;;;;;;-1.75;89.87;92716.53;5050718;28;19961;-38
2023/03/08 04:54:55;;;;;;;;;;;;;;;-1.74;90.49;92712.63;5050601;28;20389;-38
2023/03/08 04:57:20;;;;;;;;;;;;;;;-1.53;89.86;92721.28;5034418;28;19933;-38
2023/03/08 04:59:46;;;;;;;;;;;;;;;-1.36;88.24;92707.75;5030246;28;20473;-38
2023/03/08 05:02:11;;;;;;;;;;;;;;;-1.64;87.52;92719.28;5030752;28;19996;-38
2023/03/08 05:04:36;;;;;;;;;;;;;;;-1.54;87.54;92719.81;5030243;28;20021;-38
2023/03/08 05:07:02;;;;;;;;;;;;;;;-1.48;87.76;92714.38;5030570;28;19983;-38
2023/03/08 05:09:27;;;;;;;;;;;;;;;-1.41;87.25;92722.78;5030205;28;19937;-38
2023/03/08 05:11:52;;;;;;;;;;;;;;;-1.33;86.11;92720.31;5030210;28;20013;-38
2023/03/08 05:14:18;;;;;;;;;;;;;;;-1.18;85.20;92720.84;5028807;28;19993;-38
2023/03/08 05:16:43;;;;;;;;;;;;;;;-1.22;85.81;92726.50;5030100;28;19976;-38
2023/03/08 05:19:08;;;;;;;;;;;;;;;-1.26;87.00;92728.72;5030332;28;19931;-38
2023/03/08 05:21:34;;;;;;;;;;;;;;;-1.10;87.53;92736.09;5030068;28;19938;-38
2023/03/08 05:23:59;;;;;;;;;;;;;;;-1.16;87.04;92729.94;5030451;28;19983;-38
2023/03/08 05:26:24;;;;;;;;;;;;;;;-0.87;85.95;92729.47;5029868;28;19940;-38
2023/03/08 05:28:50;;;;;;;;;;;;;;;-1.18;86.20;92728.97;5030350;28;20008;-38
2023/03/08 05:31:19;;;;;;;;;;;;;;;-1.09;87.96;92734.16;5029931;28;20419;-38
2023/03/08 05:33:45;;;;;;;;;;;;;;;-1.16;87.53;92737.34;5039914;28;20413;-38
2023/03/08 05:36:11;;;;;;;;;;;;;;;-0.82;86.78;92742.28;5050023;28;19939;-38
2023/03/08 05:38:36;;;;;;;;;;;;;;;-0.89;86.66;92737.34;5049748;28;19958;-38
2023/03/08 05:41:03;;;;;;;;;;;;;;;-0.73;87.63;92745.97;5049662;28;20395;-38
2023/03/08 05:43:28;;;;;;;;;;;;;;;-0.47;87.03;92749.91;5049502;28;19937;-38
2023/03/08 05:45:54;;;;;;;;;;;;;;;-0.32;86.62;92749.63;5049478;28;19932;-38
2023/03/08 05:48:20;;;;;;;;;;;;;;;-0.10;85.65;92755.75;5049287;28;20037;-38
2023/03/08 05:50:45;;;;;;;;;;;;;;;0.14;84.00;92763.34;5049638;28;20281;-38
2023/03/08 05:53:10;;;;;;;;;;;;;;;0.01;85.08;92768.56;5049597;28;20476;-38
2023/03/08 05:55:35;;;;;;;;;;;;;;;0.20;85.66;92779.59;5047353;28;19959;-38
2023/03/08 05:58:01;;;;;;;;;;;;;;;0.22;85.46;92790.72;5029728;28;19931;-38
2023/03/08 06:00:26;;;;;;;;;;;;;;;0.12;85.56;92794.94;5029157;28;20121;-38
2023/03/08 06:02:51;;;;;;;;;;;;;;;0.05;86.97;92790.00;5029479;28;20470;-38
2023/03/08 06:05:16;;;;;;;;;;;;;;;0.20;86.62;92793.16;5029539;28;20451;-38
2023/03/08 06:07:42;;;;;;;;;;;;;;;0.38;86.29;92798.81;5029327;28;20008;-38
2023/03/08 06:10:08;;;;;;;;;;;;;;;0.27;86.73;92798.09;5029216;28;19920;-38
2023/03/08 06:12:33;;;;;;;;;;;;;;;0.33;87.51;92790.66;5029054;28;19925;-38
2023/03/08 06:14:58;;;;;;;;;;;;;;;0.32;87.86;92802.78;5029407;28;19921;-38
2023/03/08 06:17:24;;;;;;;;;;;;;;;0.54;87.98;92800.00;5029239;28;20403;-38
2023/03/08 06:19:49;;;;;;;;;;;;;;;0.62;86.45;92803.66;5029340;28;19921;-38
2023/03/08 06:22:15;;;;;;;;;;;;;;;0.70;86.32;92807.31;5028958;28;19936;-38
2023/03/08 06:24:40;;;;;;;;;;;;;;;0.58;84.27;92805.91;5028475;28;20063;-38
2023/03/08 06:27:05;;;;;;;;;;;;;;;0.37;84.99;92802.75;5029265;28;19924;-38
2023/03/08 06:29:30;;;;;;;;;;;;;;;1.20;84.21;92818.66;5029287;28;19920;-38
2023/03/08 06:31:56;;;;;;;;;;;;;;;2.68;77.61;92809.69;5028653;28;20018;-38
2023/03/08 06:34:21;;;;;;;;;;;;;;;3.87;73.47;92819.94;5044467;28;19917;-38
2023/03/08 06:36:46;;;;;;;;;;;;;;;5.62;65.32;92810.88;5048868;28;20055;-38
2023/03/08 06:39:11;;;;;;;;;;;;;;;7.45;59.83;92809.59;5049176;28;19916;-38
2023/03/08 06:41:37;;;;;;;;;;;;;;;8.73;55.48;92811.81;5048781;28;20316;-38
2023/03/08 06:44:02;;;;;;;;;;;;;;;9.38;54.20;92809.28;5048827;28;19917;-38
2023/03/08 06:46:27;;;;;;;;;;;;;;;10.15;50.96;92800.13;5048964;28;19917;-38
2023/03/08 06:48:53;;;;;;;;;;;;;;;12.72;46.97;92804.25;5048930;28;20400;-38
2023/03/08 06:51:18;;;;;;;;;;;;;;;14.04;42.01;92809.06;5048653;28;19913;-38
2023/03/08 06:53:44;;;;;;;;;;;;;;;15.55;38.68;92805.53;5048615;28;19913;-39
2023/03/08 06:56:11;;;;;;;;;;;;;;;16.23;36.19;92809.91;5063966;28;19913;-39
2023/03/08 06:58:36;;;;;;;;;;;;;;;17.20;35.57;92815.88;5048555;28;20377;-38
2023/03/08 07:01:04;;;;;;;;;;;;;;;17.72;34.08;92826.59;5048476;28;19986;-38
2023/03/08 07:03:30;;;;;;;;;;;;;;;17.96;33.10;92825.22;5048813;28;19943;-38
2023/03/08 07:05:59;;;;;;;;;;;;;;;18.21;32.36;92821.72;5048687;28;20418;-39
2023/03/08 07:08:24;;;;;;;;;;;;;;;15.80;36.10;92814.84;5048651;28;19913;-38
2023/03/08 07:10:49;;;;;;;;;;;;;;;15.83;36.85;92812.94;5048670;28;19920;-38
2023/03/08 07:13:15;;;;;;;;;;;;;;;17.37;35.24;92818.28;5048701;28;19960;-38
2023/03/08 07:15:40;;;;;;;;;;;;;;;19.17;33.13;92815.06;5048656;28;19939;-38
2023/03/08 07:18:05;;;;;;;;;;;;;;;20.40;31.29;92822.00;5039877;28;19982;-38
2023/03/08 07:20:30;;;;;;;;;;;;;;;20.72;30.31;92817.94;5028578;28;19971;-38
2023/03/08 07:22:56;;;;;;;;;;;;;;;21.56;30.31;92821.03;5028674;28;20312;-38
2023/03/08 07:25:21;;;;;;;;;;;;;;;21.53;29.64;92827.19;5028560;28;19913;-39
2023/03/08 07:27:47;;;;;;;;;;;;;;;20.78;29.37;92820.28;5028554;28;19913;-39
2023/03/08 07:30:13;;;;;;;;;;;;;;;21.54;29.73;92826.56;5028392;28;19917;-39
2023/03/08 07:32:39;;;;;;;;;;;;;;;22.96;27.68;92824.69;5028896;28;20401;-39
2023/03/08 07:35:05;;;;;;;;;;;;;;;23.68;26.59;92824.59;5048380;28;20313;-39
2023/03/08 07:37:30;;;;;;;;;;;;;;;23.73;26.23;92819.84;5049516;28;19963;-39
2023/03/08 07:39:56;;;;;;;;;;;;;;;23.92;26.27;92825.47;5051716;28;19920;-39
2023/03/08 07:42:21;;;;;;;;;;;;;;;21.56;30.26;92820.31;5051938;28;20282;-39
2023/03/08 07:44:46;;;;;;;;;;;;;;;24.34;26.89;92829.03;5051756;28;19920;-38
2023/03/08 07:47:11;;;;;;;;;;;;;;;23.93;26.50;92826.91;5051667;28;20320;-39
2023/03/08 07:49:37;;;;;;;;;;;;;;;23.39;26.66;92829.88;5051703;28;19913;-39
2023/03/08 07:52:02;;;;;;;;;;;;;;;24.33;26.67;92829.69;5051896;28;20463;-39
2023/03/08 07:54:27;;;;;;;;;;;;;;;25.65;25.25;92815.44;5051726;28;20388;-39
2023/03/08 07:56:53;;;;;;;;;;;;;;;26.20;24.89;92819.13;5039413;28;20361;-39
2023/03/08 07:59:18;;;;;;;;;;;;;;;23.45;27.30;92818.81;5031439;28;20266;-39
2023/03/08 08:01:43;;;;;;;;;;;;;;;25.05;25.14;92822.84;5031754;28;19920;-39
2023/03/08 08:04:11;;;;;;;;;;;;;;;24.80;25.49;92822.09;5031435;28;20290;-39
2023/03/08 08:06:36;;;;;;;;;;;;;;;25.50;23.99;92822.81;5031258;28;20007;-39
2023/03/08 08:09:02;;;;;;;;;;;;;;;26.00;22.17;92815.00;5031720;28;20008;-39
2023/03/08 08:11:27;;;;;;;;;;;;;;;25.36;22.36;92811.06;5031781;28;19991;-39
2023/03/08 08:13:52;;;;;;;;;;;;;;;26.61;22.57;92812.38;5031366;28;20012;-39
2023/03/08 08:16:18;;;;;;;;;;;;;;;26.50;21.48;92821.28;5031568;28;19940;-39
2023/03/08 08:18:43;;;;;;;;;;;;;;;26.16;22.77;92819.00;5031448;28;19928;-39
2023/03/08 08:21:09;;;;;;;;;;;;;;;26.61;22.20;92814.47;5031357;28;20571;-39
2023/03/08 08:23:35;;;;;;;;;;;;;;;26.47;21.36;92805.63;5031076;28;19939;-39
2023/03/08 08:26:03;;;;;;;;;;;;;;;24.40;23.17;92814.41;5031043;28;19939;-39
2023/03/08 08:28:28;;;;;;;;;;;;;;;24.31;22.67;92813.41;5031097;28;19920;-39
2023/03/08 08:30:57;;;;;;;;;;;;;;;23.56;24.33;92815.00;5030534;28;19917;-39
2023/03/08 08:33:22;;;;;;;;;;;;;;;21.55;26.09;92821.69;5038179;28;19917;-39
2023/03/08 08:35:47;;;;;;;;;;;;;;;22.86;25.39;92827.13;5050992;28;20498;-39
2023/03/08 08:38:13;;;;;;;;;;;;;;;23.98;23.33;92822.84;5050950;28;19920;-39
2023/03/08 08:40:38;;;;;;;;;;;;;;;23.98;22.69;92820.03;5050451;28;20066;-39
2023/03/08 08:43:03;;;;;;;;;;;;;;;23.78;22.57;92822.13;5050570;28;19928;-39
2023/03/08 08:45:28;;;;;;;;;;;;;;;21.58;25.85;92812.69;5050745;28;19917;-39
2023/03/08 08:47:54;;;;;;;;;;;;;;;21.33;25.62;92812.28;5049779;28;20481;-38
2023/03/08 08:50:19;;;;;;;;;;;;;;;20.25;27.80;92819.88;5050320;28;19913;-39
2023/03/08 08:52:44;;;;;;;;;;;;;;;20.57;27.50;92820.69;5050592;28;19921;-38
2023/03/08 08:55:10;;;;;;;;;;;;;;;19.15;29.44;92824.09;5050632;28;19913;-39
2023/03/08 08:57:35;;;;;;;;;;;;;;;18.74;30.69;92820.47;5032497;28;20374;-39
2023/03/08 09:00:00;;;;;;;;;;;;;;;18.38;31.24;92833.19;5030332;28;19964;-38
2023/03/08 09:02:25;;;;;;;;;;;;;;;18.11;31.28;92842.16;5030366;28;19917;-38
2023/03/08 09:04:51;;;;;;;;;;;;;;;18.07;32.40;92830.75;5030245;28;19912;-38
2023/03/08 09:07:16;;;;;;;;;;;;;;;17.27;33.56;92824.00;5030392;28;19917;-38
2023/03/08 09:09:41;;;;;;;;;;;;;;;17.29;34.76;92823.38;5030427;28;19948;-38
2023/03/08 09:12:07;;;;;;;;;;;;;;;16.60;34.74;92833.19;5030069;28;19923;-38
2023/03/08 09:14:33;;;;;;;;;;;;;;;16.50;34.63;92829.75;5030474;28;19947;-38
2023/03/08 09:16:58;;;;;;;;;;;;;;;15.80;35.47;92831.56;5030335;28;19920;-38
2023/03/08 09:19:23;;;;;;;;;;;;;;;15.63;36.91;92825.53;5030073;28;20344;-38
2023/03/08 09:21:48;;;;;;;;;;;;;;;15.85;37.54;92830.47;5030234;28;19917;-38
2023/03/08 09:24:15;;;;;;;;;;;;;;;15.77;37.22;92827.16;5030220;28;20004;-38
2023/03/08 09:26:40;;;;;;;;;;;;;;;16.00;36.61;92837.69;5029980;28;19920;-38
2023/03/08 09:29:06;;;;;;;;;;;;;;;15.41;37.56;92835.91;5030197;28;19917;-38
2023/03/08 09:31:32;;;;;;;;;;;;;;;15.45;38.11;92835.47;5029469;28;19920;-38
2023/03/08 09:33:58;;;;;;;;;;;;;;;15.27;38.19;92839.81;5041856;28;19913;-38
2023/03/08 09:36:24;;;;;;;;;;;;;;;15.02;37.91;92831.88;5049570;28;19913;-38
2023/03/08 09:38:49;;;;;;;;;;;;;;;14.78;38.90;92838.56;5049807;28;19917;-38
2023/03/08 09:41:20;;;;;;;;;;;;;;;14.39;40.11;92835.91;5049452;28;19913;-38
2023/03/08 09:43:45;;;;;;;;;;;;;;;14.59;39.53;92844.91;5049738;28;19919;-38
2023/03/08 09:46:11;;;;;;;;;;;;;;;14.73;39.19;92845.16;5049472;28;20379;-38
2023/03/08 09:48:37;;;;;;;;;;;;;;;14.37;40.43;92837.81;5049164;28;20368;-38
2023/03/08 09:51:03;;;;;;;;;;;;;;;14.58;39.85;92834.38;5064936;28;20003;-38
2023/03/08 09:53:33;;;;;;;;;;;;;;;14.33;40.49;92837.53;5064973;28;19949;-38
2023/03/08 09:56:02;;;;;;;;;;;;;;;14.40;39.89;92845.69;5049243;28;20561;-38
2023/03/08 09:58:36;;;;;;;;;;;;;;;14.33;39.65;92834.75;5064692;28;19912;-38
2023/03/08 10:01:14;;;;;;;;;;;;;;;14.31;39.73;92842.94;5048360;28;20407;-38
2023/03/08 10:03:40;;;;;;;;;;;;;;;14.32;40.62;92847.91;5049574;28;19917;-38
2023/03/08 10:06:23;;;;;;;;;;;;;;;14.46;40.37;92847.44;5046991;28;19939;-38
2023/03/08 10:09:11;;;;;;;;;;;;;;;14.44;39.16;92839.69;5029525;28;19983;-38
2023/03/08 10:11:45;;;;;;;;;;;;;;;14.82;39.69;92830.50;5029284;28;19939;-38
2023/03/08 10:14:14;;;;;;;;;;;;;;;15.23;38.38;92828.38;5029548;28;19917;-38
2023/03/08 10:16:42;;;;;;;;;;;;;;;15.19;38.78;92826.81;5044640;28;19913;-38
2023/03/08 10:19:19;;;;;;;;;;;;;;;15.36;38.64;92830.66;5044256;28;19913;-38
2023/03/08 10:21:45;;;;;;;;;;;;;;;16.04;37.80;92828.88;5044293;28;19921;-38
2023/03/08 10:24:10;;;;;;;;;;;;;;;16.80;36.98;92825.34;5028945;28;19913;-38
2023/03/08 10:26:35;;;;;;;;;;;;;;;17.01;36.95;92816.13;5029011;28;19978;-38
2023/03/08 10:29:00;;;;;;;;;;;;;;;17.93;34.42;92818.06;5028961;28;20337;-38
2023/03/08 10:31:27;;;;;;;;;;;;;;;18.32;32.91;92824.44;5028742;28;20024;-38
2023/03/08 10:34:13;;;;;;;;;;;;;;;20.11;32.01;92808.69;5040071;28;19913;-38
2023/03/08 10:36:57;;;;;;;;;;;;;;;20.47;30.44;92809.72;5048266;28;20316;-38
2023/03/08 10:39:22;;;;;;;;;;;;;;;19.67;30.82;92812.81;5048800;28;19913;-38
2023/03/08 10:41:48;;;;;;;;;;;;;;;19.70;29.23;92816.44;5048902;28;19920;-38
2023/03/08 10:44:35;;;;;;;;;;;;;;;20.28;31.05;92815.81;5064392;28;19916;-38
2023/03/08 10:47:01;;;;;;;;;;;;;;;20.78;28.94;92806.97;5048768;28;19913;-38
2023/03/08 10:49:26;;;;;;;;;;;;;;;21.64;27.26;92801.72;5064366;28;20431;-38
2023/03/08 10:51:54;;;;;;;;;;;;;;;23.05;25.86;92796.22;5048475;28;20396;-38
2023/03/08 10:54:19;;;;;;;;;;;;;;;24.08;25.76;92786.53;5048734;28;19913;-38
2023/03/08 10:56:55;;;;;;;;;;;;;;;24.50;25.10;92792.88;5037169;28;20569;-38
2023/03/08 10:59:33;;;;;;;;;;;;;;;23.93;24.24;92781.78;5028464;28;20481;-38
2023/03/08 11:02:21;;;;;;;;;;;;;;;23.19;26.26;92784.75;5028562;28;19914;-38
2023/03/08 11:04:54;;;;;;;;;;;;;;;23.30;25.43;92778.81;5009191;28;19921;-38
2023/03/08 11:07:23;;;;;;;;;;;;;;;23.18;26.82;92784.03;5008837;28;19928;-38
2023/03/08 11:09:48;;;;;;;;;;;;;;;23.42;24.91;92770.13;5009131;28;19913;-38
2023/03/08 11:12:21;;;;;;;;;;;;;;;22.71;25.96;92780.09;5042957;28;19922;-38
2023/03/08 11:14:46;;;;;;;;;;;;;;;23.54;24.92;92762.09;5012587;28;19918;-38
2023/03/08 11:17:12;;;;;;;;;;;;;;;23.56;24.43;92765.00;5044431;28;19913;-39
2023/03/08 11:19:59;;;;;;;;;;;;;;;23.92;24.71;92754.97;5024371;28;20000;-39
2023/03/08 11:22:27;;;;;;;;;;;;;;;22.23;25.48;92753.56;5032383;28;19913;-39
2023/03/08 11:25:08;;;;;;;;;;;;;;;22.95;25.04;92756.44;5032375;28;19917;-39
2023/03/08 11:27:48;;;;;;;;;;;;;;;21.69;26.80;92746.44;5032051;28;19920;-39
2023/03/08 11:30:13;;;;;;;;;;;;;;;20.38;27.12;92749.72;5032322;28;19924;-38
2023/03/08 11:32:53;;;;;;;;;;;;;;;21.09;27.79;92734.03;5032485;28;20507;-39
2023/03/08 11:35:23;;;;;;;;;;;;;;;20.84;29.12;92742.72;5052189;28;19913;-38
2023/03/08 11:37:51;;;;;;;;;;;;;;;20.58;29.56;92738.72;5051740;28;19920;-38
2023/03/08 11:40:19;;;;;;;;;;;;;;;21.13;29.22;92734.25;5051858;28;19917;-38
2023/03/08 11:43:07;;;;;;;;;;;;;;;21.54;28.29;92727.53;5067080;28;19981;-38
2023/03/08 11:45:35;;;;;;;;;;;;;;;22.37;26.82;92715.47;5051352;28;19916;-38
2023/03/08 11:48:09;;;;;;;;;;;;;;;22.13;25.59;92708.94;5051754;28;20341;-38
2023/03/08 11:50:35;;;;;;;;;;;;;;;21.76;28.66;92703.19;5051702;28;19913;-38
2023/03/08 11:53:19;;;;;;;;;;;;;;;21.44;28.66;92701.84;5066923;28;20446;-38
2023/03/08 11:55:49;;;;;;;;;;;;;;;21.89;27.95;92707.94;5048768;28;19967;-38
2023/03/08 11:58:33;;;;;;;;;;;;;;;22.64;26.70;92708.81;5047320;28;19949;-38
2023/03/08 12:00:59;;;;;;;;;;;;;;;22.50;28.29;92706.13;5011661;28;20324;-39
2023/03/08 12:03:36;;;;;;;;;;;;;;;22.08;27.22;92712.94;5011991;28;19949;-39
2023/03/08 12:06:12;;;;;;;;;;;;;;;22.23;27.67;92695.25;5043515;28;19953;-38
2023/03/08 12:08:45;;;;;;;;;;;;;;;22.57;26.99;92701.47;5043373;28;19967;-38
2023/03/08 12:11:20;;;;;;;;;;;;;;;21.98;25.84;92697.75;5043437;28;19974;-38
2023/03/08 12:13:47;;;;;;;;;;;;;;;21.77;28.36;92699.72;5011612;28;19922;-38
2023/03/08 12:16:12;;;;;;;;;;;;;;;21.20;29.38;92700.81;5011766;28;20516;-38
2023/03/08 12:18:43;;;;;;;;;;;;;;;21.04;27.71;92695.94;5015329;28;19917;-38
2023/03/08 12:21:27;;;;;;;;;;;;;;;21.11;29.82;92703.25;5031080;28;19913;-38
2023/03/08 12:23:56;;;;;;;;;;;;;;;20.70;29.55;92688.06;5030274;28;19944;-38
2023/03/08 12:26:29;;;;;;;;;;;;;;;20.56;29.94;92693.03;5046452;28;19917;-38
2023/03/08 12:29:02;;;;;;;;;;;;;;;20.66;28.75;92685.78;5031308;28;20375;-39
2023/03/08 12:31:28;;;;;;;;;;;;;;;20.17;29.74;92694.06;5030918;28;19913;-38
2023/03/08 12:33:54;;;;;;;;;;;;;;;19.87;31.12;92687.03;5042187;28;19963;-38
2023/03/08 12:36:21;;;;;;;;;;;;;;;19.75;31.97;92691.34;5051063;28;19963;-38
2023/03/08 12:38:51;;;;;;;;;;;;;;;19.57;31.56;92691.91;5050894;28;19920;-38
2023/03/08 12:41:25;;;;;;;;;;;;;;;20.12;30.99;92691.72;5050990;28;19970;-38
2023/03/08 12:43:57;;;;;;;;;;;;;;;19.98;29.85;92691.03;5050650;28;20458;-38
2023/03/08 12:46:23;;;;;;;;;;;;;;;19.49;28.49;92691.50;5050865;28;19913;-38